createdAt,value
2018-05-13T00:00:52.787Z,6.63
2018-05-13T00:03:21.034Z,6.90
2018-05-13T00:05:48.469Z,6.57
2018-05-13T00:08:16.696Z,6.97
2018-05-13T00:10:44.141Z,6.63
2018-05-13T00:13:11.593Z,6.97
2018-05-13T00:15:39.042Z,6.63
2018-05-13T00:18:06.499Z,6.80
2018-05-13T00:20:33.933Z,7.20
2018-05-13T00:23:01.454Z,8.40
2018-05-13T00:25:29.594Z,7.47
2018-05-13T00:27:57.057Z,7.37
2018-05-13T00:30:24.502Z,8.37
2018-05-13T00:32:51.958Z,9.33
2018-05-13T00:35:19.402Z,8.30
2018-05-13T00:37:46.844Z,8.13
2018-05-13T00:40:15.068Z,9.57
2018-05-13T00:42:42.500Z,8.73
2018-05-13T00:45:09.958Z,9.77
2018-05-13T00:47:37.414Z,8.20
2018-05-13T00:50:04.858Z,8.37
2018-05-13T00:52:32.289Z,8.20
2018-05-13T00:54:59.739Z,8.13
2018-05-13T00:57:27.174Z,7.97
2018-05-13T00:59:54.614Z,8.43
2018-05-13T01:02:22.074Z,7.83
2018-05-13T01:04:49.521Z,8.27
2018-05-13T01:07:16.968Z,8.90
2018-05-13T01:09:44.408Z,8.30
2018-05-13T01:12:12.663Z,7.17
2018-05-13T01:14:40.114Z,7.60
2018-05-13T01:17:07.549Z,7.57
2018-05-13T01:19:35.001Z,7.50
2018-05-13T01:22:02.439Z,7.40
2018-05-13T01:24:29.897Z,7.57
2018-05-13T01:26:57.338Z,7.40
2018-05-13T01:29:24.800Z,7.07
2018-05-13T01:31:52.215Z,6.60
2018-05-13T01:34:19.665Z,5.97
2018-05-13T01:36:47.100Z,7.77
2018-05-13T01:39:14.562Z,8.50
2018-05-13T01:41:42.010Z,8.10
2018-05-13T01:44:09.457Z,8.30
2018-05-13T01:46:36.914Z,8.50
2018-05-13T01:49:04.364Z,8.93
2018-05-13T01:51:31.800Z,9.80
2018-05-13T01:54:00.042Z,10.00
2018-05-13T01:56:27.490Z,10.53
2018-05-13T01:58:54.930Z,10.27
2018-05-13T02:01:22.494Z,11.57
2018-05-13T02:03:49.939Z,12.17
2018-05-13T02:11:59.309Z,12.97
2018-05-13T02:14:27.364Z,13.23
2018-05-13T02:16:54.811Z,14.33
2018-05-13T02:19:23.046Z,14.73
2018-05-13T02:21:50.478Z,13.97
2018-05-13T02:24:17.933Z,14.10
2018-05-13T02:26:45.395Z,13.30
2018-05-13T02:29:12.862Z,13.00
2018-05-13T02:31:40.317Z,12.53
2018-05-13T02:34:07.765Z,11.60
2018-05-13T02:36:35.239Z,10.93
2018-05-13T02:39:02.686Z,10.53
2018-05-13T02:41:30.153Z,9.67
2018-05-13T02:43:57.598Z,8.63
2018-05-13T02:46:25.051Z,8.07
2018-05-13T02:48:52.485Z,8.43
2018-05-13T02:51:19.942Z,8.20
2018-05-13T02:53:47.387Z,8.27
2018-05-13T02:56:15.607Z,8.23
2018-05-13T02:58:43.055Z,9.23
2018-05-13T03:01:10.511Z,9.27
2018-05-13T03:03:37.963Z,9.63
2018-05-13T03:06:05.434Z,9.77
2018-05-13T03:08:32.883Z,11.53
2018-05-13T03:11:00.340Z,10.87
2018-05-13T03:13:27.796Z,11.10
2018-05-13T03:15:55.267Z,9.80
2018-05-13T03:18:22.710Z,9.50
2018-05-13T03:20:50.167Z,8.60
2018-05-13T03:23:17.618Z,8.33
2018-05-13T03:25:45.076Z,8.40
2018-05-13T03:28:12.530Z,8.77
2018-05-13T03:30:40.008Z,8.07
2018-05-13T03:33:07.463Z,8.77
2018-05-13T03:35:34.919Z,8.17
2018-05-13T03:38:02.367Z,7.43
2018-05-13T03:40:29.821Z,8.37
2018-05-13T03:42:57.276Z,7.80
2018-05-13T03:45:24.730Z,8.40
2018-05-13T03:47:52.174Z,7.40
2018-05-13T03:50:19.608Z,7.40
2018-05-13T03:52:47.822Z,7.57
2018-05-13T03:55:15.262Z,7.40
2018-05-13T03:57:42.718Z,8.63
2018-05-13T04:00:10.166Z,8.10
2018-05-13T04:02:37.662Z,7.67
2018-05-13T04:05:05.821Z,7.37
2018-05-13T04:07:33.268Z,6.77
2018-05-13T04:10:13.514Z,7.53
2018-05-13T04:12:52.766Z,7.60
2018-05-13T04:15:35.087Z,7.87
2018-05-13T04:18:02.534Z,8.07
2018-05-13T04:20:29.987Z,7.60
2018-05-13T04:22:57.445Z,7.93
2018-05-13T04:25:24.894Z,8.53
2018-05-13T04:27:52.337Z,8.10
2018-05-13T04:30:19.781Z,7.70
2018-05-13T04:32:48.002Z,7.60
2018-05-13T04:35:15.441Z,7.10
2018-05-13T04:37:42.902Z,6.80
2018-05-13T04:40:10.341Z,7.03
2018-05-13T04:42:38.550Z,7.63
2018-05-13T04:45:06.003Z,15.63
2018-05-13T04:47:33.442Z,6.63
2018-05-13T04:50:00.879Z,6.43
2018-05-13T04:52:29.097Z,6.30
2018-05-13T04:54:56.552Z,6.40
2018-05-13T04:57:23.985Z,6.30
2018-05-13T04:59:51.438Z,8.97
2018-05-13T05:02:18.890Z,9.67
2018-05-13T05:04:46.339Z,7.00
2018-05-13T05:07:14.552Z,6.43
2018-05-13T05:09:41.992Z,6.93
2018-05-13T05:12:09.440Z,7.40
2018-05-13T05:14:36.896Z,7.07
2018-05-13T05:17:05.093Z,7.10
2018-05-13T05:19:32.534Z,7.10
2018-05-13T05:21:59.979Z,9.53
2018-05-13T05:24:27.426Z,8.03
2018-05-13T05:26:55.642Z,7.60
2018-05-13T05:29:23.080Z,7.70
2018-05-13T05:31:50.526Z,8.07
2018-05-13T05:34:17.978Z,7.80
2018-05-13T05:36:46.183Z,8.63
2018-05-13T05:39:13.623Z,8.70
2018-05-13T05:41:41.088Z,9.00
2018-05-13T05:44:08.559Z,9.67
2018-05-13T05:46:35.980Z,9.07
2018-05-13T05:49:04.189Z,9.20
2018-05-13T05:51:31.630Z,8.93
2018-05-13T05:53:59.106Z,8.33
2018-05-13T05:56:26.535Z,9.00
2018-05-13T05:58:54.750Z,8.03
2018-05-13T06:01:22.185Z,8.73
2018-05-13T06:03:49.642Z,9.37
2018-05-13T06:06:17.086Z,9.87
2018-05-13T06:08:44.545Z,9.80
2018-05-13T06:11:11.990Z,10.10
2018-05-13T06:13:40.226Z,10.87
2018-05-13T06:16:07.661Z,10.70
2018-05-13T06:18:35.118Z,10.57
2018-05-13T06:21:02.583Z,10.90
2018-05-13T06:23:30.031Z,11.27
2018-05-13T06:25:57.473Z,12.47
2018-05-13T06:28:24.933Z,13.50
2018-05-13T06:30:52.373Z,14.53
2018-05-13T06:33:19.846Z,18.33
2018-05-13T06:35:47.294Z,19.20
2018-05-13T06:38:14.743Z,21.57
2018-05-13T06:40:42.202Z,22.50
2018-05-13T06:43:09.637Z,24.70
2018-05-13T06:45:37.863Z,24.73
2018-05-13T06:48:05.306Z,25.93
2018-05-13T06:50:32.753Z,23.93
2018-05-13T06:53:00.205Z,24.07
2018-05-13T06:55:27.654Z,23.97
2018-05-13T06:57:55.115Z,24.10
2018-05-13T07:00:22.587Z,25.67
2018-05-13T07:02:50.107Z,25.07
2018-05-13T07:05:17.485Z,25.20
2018-05-13T07:07:44.944Z,27.00
2018-05-13T07:10:12.418Z,27.00
2018-05-13T07:12:39.858Z,27.50
2018-05-13T07:15:07.332Z,28.33
2018-05-13T07:17:34.774Z,29.13
2018-05-13T07:20:02.234Z,30.10
2018-05-13T07:22:29.689Z,27.80
2018-05-13T07:24:57.142Z,26.70
2018-05-13T07:27:24.598Z,27.57
2018-05-13T07:29:52.813Z,26.40
2018-05-13T07:32:20.262Z,26.87
2018-05-13T07:34:47.724Z,26.77
2018-05-13T07:37:15.174Z,29.37
2018-05-13T07:39:42.626Z,30.27
2018-05-13T07:42:10.069Z,30.83
2018-05-13T07:44:37.518Z,29.43
2018-05-13T07:47:04.970Z,30.40
2018-05-13T07:49:33.269Z,30.43
2018-05-13T07:52:00.633Z,28.33
2018-05-13T07:54:28.103Z,27.97
2018-05-13T07:56:55.525Z,28.73
2018-05-13T07:59:22.989Z,29.40
2018-05-13T08:01:50.430Z,30.57
2018-05-13T08:04:17.890Z,30.53
2018-05-13T08:06:46.126Z,27.43
2018-05-13T08:09:13.584Z,27.67
2018-05-13T08:11:41.037Z,31.03
2018-05-13T08:14:08.533Z,31.30
2018-05-13T08:16:36.007Z,33.40
2018-05-13T08:19:03.446Z,33.50
2018-05-13T08:21:31.672Z,31.53
2018-05-13T08:23:59.113Z,30.00
2018-05-13T08:26:26.575Z,30.07
2018-05-13T08:28:54.020Z,30.80
2018-05-13T08:31:21.472Z,32.13
2018-05-13T08:33:48.923Z,32.23
2018-05-13T08:36:16.373Z,31.90
2018-05-13T08:38:43.823Z,32.20
2018-05-13T08:41:12.056Z,32.33
2018-05-13T08:43:39.491Z,34.60
2018-05-13T08:46:06.955Z,29.43
2018-05-13T08:48:34.417Z,31.03
2018-05-13T08:51:01.845Z,29.20
2018-05-13T08:53:29.294Z,30.13
2018-05-13T08:55:56.751Z,29.87
2018-05-13T08:58:24.208Z,29.83
2018-05-13T09:00:51.675Z,30.40
2018-05-13T09:03:19.136Z,30.07
2018-05-13T09:05:46.606Z,28.23
2018-05-13T09:08:14.057Z,28.60
2018-05-13T09:10:41.511Z,25.50
2018-05-13T09:13:08.971Z,25.77
2018-05-13T09:15:36.429Z,23.47
2018-05-13T09:18:03.895Z,21.07
2018-05-13T09:20:31.410Z,22.30
2018-05-13T09:22:58.832Z,20.20
2018-05-13T09:25:26.314Z,21.70
2018-05-13T09:27:53.763Z,23.17
2018-05-13T09:30:21.212Z,19.10
2018-05-13T09:32:48.666Z,19.80
2018-05-13T09:35:16.115Z,19.87
2018-05-13T09:37:43.570Z,19.93
2018-05-13T09:40:11.030Z,20.50
2018-05-13T09:42:38.512Z,18.77
2018-05-13T09:45:05.964Z,19.20
2018-05-13T09:47:33.422Z,21.47
2018-05-13T09:50:00.883Z,20.57
2018-05-13T09:52:28.358Z,19.70
2018-05-13T09:54:56.577Z,22.17
2018-05-13T09:57:24.044Z,21.80
2018-05-13T09:59:51.499Z,21.47
2018-05-13T10:02:18.985Z,18.90
2018-05-13T10:04:46.437Z,21.60
2018-05-13T10:07:13.906Z,17.27
2018-05-13T10:09:41.362Z,18.63
2018-05-13T10:12:08.822Z,17.03
2018-05-13T10:14:37.066Z,16.70
2018-05-13T10:17:04.521Z,16.70
2018-05-13T10:19:32.003Z,15.27
2018-05-13T10:21:59.439Z,17.07
2018-05-13T10:24:26.894Z,14.80
2018-05-13T10:26:54.348Z,13.80
2018-05-13T10:29:21.817Z,15.07
2018-05-13T10:31:49.268Z,20.03
2018-05-13T10:34:16.718Z,20.83
2018-05-13T10:36:44.709Z,21.67
2018-05-13T10:39:12.154Z,20.57
2018-05-13T10:41:39.612Z,19.37
2018-05-13T10:44:07.057Z,16.63
2018-05-13T10:46:34.513Z,17.17
2018-05-13T10:49:01.973Z,15.93
2018-05-13T10:51:29.425Z,15.73
2018-05-13T10:53:56.882Z,15.70
2018-05-13T10:56:24.344Z,17.40
2018-05-13T10:58:52.575Z,17.00
2018-05-13T11:01:20.028Z,17.20
2018-05-13T11:03:48.249Z,17.40
2018-05-13T11:06:15.707Z,17.03
2018-05-13T11:08:43.162Z,17.37
2018-05-13T11:11:10.616Z,16.47
2018-05-13T11:13:38.073Z,16.63
2018-05-13T11:16:05.536Z,16.80
2018-05-13T11:18:33.004Z,17.83
2018-05-13T11:21:00.475Z,17.63
2018-05-13T11:23:27.956Z,19.23
2018-05-13T11:25:55.415Z,18.77
2018-05-13T11:28:23.634Z,16.37
2018-05-13T11:30:51.093Z,16.60
2018-05-13T11:33:18.550Z,17.43
2018-05-13T11:35:46.011Z,18.47
2018-05-13T11:38:13.470Z,20.07
2018-05-13T11:40:41.585Z,21.67
2018-05-13T11:43:09.809Z,22.20
2018-05-13T11:45:37.250Z,22.80
2018-05-13T11:48:04.694Z,24.13
2018-05-13T11:50:32.134Z,23.93
2018-05-13T11:53:00.362Z,22.70
2018-05-13T11:55:27.848Z,23.03
2018-05-13T11:57:55.311Z,24.77
2018-05-13T12:00:22.766Z,22.47
2018-05-13T12:02:50.244Z,20.90
2018-05-13T12:05:17.675Z,21.23
2018-05-13T12:07:45.146Z,23.73
2018-05-13T12:10:12.584Z,22.33
2018-05-13T12:12:40.058Z,21.00
2018-05-13T12:15:07.601Z,21.67
2018-05-13T12:17:35.031Z,21.10
2018-05-13T12:20:02.489Z,22.07
2018-05-13T12:22:29.942Z,21.07
2018-05-13T12:24:57.408Z,22.50
2018-05-13T12:27:24.872Z,23.03
2018-05-13T12:29:52.327Z,23.40
2018-05-13T12:32:19.783Z,24.13
2018-05-13T12:34:47.251Z,25.20
2018-05-13T12:37:14.701Z,28.10
2018-05-13T12:39:42.161Z,23.60
2018-05-13T12:42:09.614Z,23.83
2018-05-13T12:44:37.075Z,24.57
2018-05-13T12:47:04.538Z,22.53
2018-05-13T12:49:32.008Z,22.80
2018-05-13T12:51:59.462Z,24.93
2018-05-13T12:54:26.922Z,23.20
2018-05-13T12:56:54.376Z,23.87
2018-05-13T12:59:21.841Z,23.03
2018-05-13T13:01:49.302Z,23.07
2018-05-13T13:04:16.747Z,24.93
2018-05-13T13:06:44.185Z,24.70
2018-05-13T13:09:11.702Z,23.60
2018-05-13T13:11:39.090Z,23.53
2018-05-13T13:14:06.554Z,25.07
2018-05-13T13:16:34.023Z,24.10
2018-05-13T13:19:01.490Z,24.33
2018-05-13T13:21:28.943Z,24.43
2018-05-13T13:23:56.397Z,23.97
2018-05-13T13:26:23.863Z,24.33
2018-05-13T13:28:51.333Z,25.27
2018-05-13T13:31:18.781Z,24.93
2018-05-13T13:33:46.238Z,25.23
2018-05-13T13:36:13.684Z,24.70
2018-05-13T13:38:41.139Z,24.90
2018-05-13T13:41:08.584Z,25.43
2018-05-13T13:43:36.029Z,24.93
2018-05-13T13:46:03.500Z,25.17
2018-05-13T13:48:30.956Z,25.63
2018-05-13T13:50:58.431Z,25.43
2018-05-13T13:53:25.947Z,24.57
2018-05-13T13:55:53.344Z,26.37
2018-05-13T13:58:20.800Z,24.50
2018-05-13T14:00:48.269Z,25.67
2018-05-13T14:03:15.722Z,25.77
2018-05-13T14:05:43.183Z,27.07
2018-05-13T14:08:10.624Z,27.00
2018-05-13T14:10:38.094Z,25.70
2018-05-13T14:13:05.552Z,27.90
2018-05-13T14:15:33.008Z,25.33
2018-05-13T14:18:00.456Z,24.50
2018-05-13T14:20:28.763Z,24.73
2018-05-13T14:22:56.891Z,23.90
2018-05-13T14:25:24.362Z,25.67
2018-05-13T14:27:51.819Z,26.03
2018-05-13T14:30:19.288Z,25.37
2018-05-13T14:32:46.726Z,26.23
2018-05-13T14:35:14.199Z,24.37
2018-05-13T14:37:41.643Z,22.90
2018-05-13T14:40:09.114Z,24.77
2018-05-13T14:42:36.558Z,24.77
2018-05-13T14:45:04.027Z,25.20
2018-05-13T14:47:31.465Z,25.53
2018-05-13T14:49:58.927Z,25.20
2018-05-13T14:52:26.383Z,27.43
2018-05-13T14:54:53.839Z,24.23
2018-05-13T14:57:22.050Z,23.63
2018-05-13T14:59:49.502Z,24.30
2018-05-13T15:02:16.955Z,24.53
2018-05-13T15:04:44.413Z,25.50
2018-05-13T15:07:11.859Z,26.27
2018-05-13T15:09:39.298Z,25.43
2018-05-13T15:12:06.757Z,26.37
2018-05-13T15:14:34.197Z,26.80
2018-05-13T15:17:01.670Z,26.03
2018-05-13T15:19:29.131Z,26.33
2018-05-13T15:21:57.365Z,28.00
2018-05-13T15:24:24.819Z,28.37
2018-05-13T15:26:53.039Z,26.50
2018-05-13T15:29:20.491Z,28.33
2018-05-13T15:31:48.642Z,33.27
2018-05-13T15:34:16.083Z,28.77
2018-05-13T15:36:44.887Z,30.63
2018-05-13T15:39:12.334Z,29.00
2018-05-13T15:41:39.786Z,29.53
2018-05-13T15:44:07.250Z,27.60
2018-05-13T15:46:34.702Z,28.43
2018-05-13T15:49:02.160Z,27.27
2018-05-13T15:51:31.166Z,30.07
2018-05-13T15:53:58.658Z,31.00
2018-05-13T15:56:26.115Z,30.00
2018-05-13T15:58:53.562Z,30.73
2018-05-13T16:01:21.031Z,29.93
2018-05-13T16:03:48.475Z,28.70
2018-05-13T16:06:15.947Z,29.53
2018-05-13T16:08:43.375Z,30.07
2018-05-13T16:11:10.846Z,28.43
2018-05-13T16:13:38.284Z,30.07
2018-05-13T16:16:05.763Z,30.07
2018-05-13T16:18:33.230Z,28.93
2018-05-13T16:21:00.670Z,28.33
2018-05-13T16:23:28.138Z,28.37
2018-05-13T16:25:55.587Z,30.60
2018-05-13T16:28:23.808Z,28.83
2018-05-13T16:30:52.042Z,29.00
2018-05-13T16:33:19.496Z,28.93
2018-05-13T16:35:46.937Z,29.90
2018-05-13T16:38:14.406Z,28.57
2018-05-13T16:40:41.882Z,28.70
2018-05-13T16:43:09.342Z,29.90
2018-05-13T16:45:36.793Z,28.83
2018-05-13T16:48:04.253Z,28.50
2018-05-13T16:50:31.690Z,27.80
2018-05-13T16:52:59.160Z,28.90
2018-05-13T16:55:26.631Z,28.43
2018-05-13T16:57:54.083Z,27.97
2018-05-13T17:00:21.535Z,29.10
2018-05-13T17:02:48.972Z,28.50
2018-05-13T17:05:16.434Z,27.40
2018-05-13T17:07:43.920Z,27.97
2018-05-13T17:10:11.363Z,27.17
2018-05-13T17:12:38.814Z,25.17
2018-05-13T17:15:06.274Z,28.40
2018-05-13T17:17:33.733Z,28.97
2018-05-13T17:20:01.187Z,26.37
2018-05-13T17:22:28.633Z,21.57
2018-05-13T17:24:56.102Z,22.10
2018-05-13T17:27:24.323Z,20.33
2018-05-13T17:29:52.560Z,19.90
2018-05-13T17:32:20.013Z,18.23
2018-05-13T17:34:47.451Z,17.00
2018-05-13T17:37:14.939Z,16.47
2018-05-13T17:39:42.366Z,16.17
2018-05-13T17:42:09.821Z,15.20
2018-05-13T17:44:37.295Z,14.07
2018-05-13T17:47:04.733Z,13.90
2018-05-13T17:49:32.237Z,15.57
2018-05-13T17:51:59.654Z,15.10
2018-05-13T17:54:27.102Z,15.00
2018-05-13T17:56:54.561Z,14.97
2018-05-13T17:59:22.039Z,15.10
2018-05-13T18:01:49.490Z,14.03
2018-05-13T18:04:17.728Z,14.27
2018-05-13T18:06:45.993Z,14.33
2018-05-13T18:09:13.415Z,14.13
2018-05-13T18:11:40.884Z,15.07
2018-05-13T18:14:08.319Z,15.27
2018-05-13T18:16:35.755Z,14.40
2018-05-13T18:19:03.240Z,14.80
2018-05-13T18:21:30.781Z,16.33
2018-05-13T18:23:58.149Z,13.87
2018-05-13T18:26:25.609Z,13.93
2018-05-13T18:28:53.058Z,13.60
2018-05-13T18:31:20.513Z,13.83
2018-05-13T18:33:47.988Z,13.60
2018-05-13T18:36:15.440Z,13.17
2018-05-13T18:38:42.913Z,13.30
2018-05-13T18:41:10.353Z,13.80
2018-05-13T18:43:37.818Z,13.63
2018-05-13T18:46:05.271Z,14.83
2018-05-13T18:48:32.728Z,14.17
2018-05-13T18:51:00.171Z,14.63
2018-05-13T18:53:27.640Z,14.13
2018-05-13T18:55:55.094Z,13.83
2018-05-13T18:58:22.549Z,15.37
2018-05-13T19:00:50.012Z,15.03
2018-05-13T19:03:17.471Z,16.60
2018-05-13T19:05:44.912Z,16.30
2018-05-13T19:08:12.565Z,18.27
2018-05-13T19:10:40.024Z,16.53
2018-05-13T19:13:07.458Z,17.50
2018-05-13T19:15:34.906Z,19.10
2018-05-13T19:18:03.363Z,18.00
2018-05-13T19:20:31.653Z,17.70
2018-05-13T19:22:59.923Z,16.63
2018-05-13T19:25:28.424Z,17.47
2018-05-13T19:27:57.303Z,18.43
2018-05-13T19:30:26.098Z,18.60
2018-05-13T19:32:54.288Z,18.83
2018-05-13T19:35:22.050Z,17.60
2018-05-13T19:37:49.498Z,18.13
2018-05-13T19:40:17.977Z,16.77
2018-05-13T19:42:46.446Z,18.70
2018-05-13T19:45:14.671Z,19.30
2018-05-13T19:47:42.203Z,17.97
2018-05-13T19:50:09.649Z,18.83
2018-05-13T19:52:37.758Z,18.80
2018-05-13T19:55:06.050Z,17.53
2018-05-13T19:57:34.187Z,17.23
2018-05-13T20:00:01.664Z,17.23
2018-05-13T20:02:29.165Z,17.17
2018-05-13T20:04:57.231Z,17.37
2018-05-13T20:07:25.289Z,16.90
2018-05-13T20:09:52.811Z,16.47
2018-05-13T20:12:20.275Z,15.93
2018-05-13T20:14:49.222Z,16.73
2018-05-13T20:19:51.254Z,14.80
2018-05-13T20:22:18.698Z,15.90
2018-05-13T20:24:46.144Z,16.47
2018-05-13T20:27:14.152Z,16.83
2018-05-13T20:29:42.813Z,15.30
2018-05-13T20:32:10.563Z,16.43
2018-05-13T20:34:38.771Z,16.50
2018-05-13T20:37:06.270Z,18.40
2018-05-13T20:39:34.621Z,19.83
2018-05-13T20:42:02.081Z,18.03
2018-05-13T20:44:29.806Z,19.33
2018-05-13T20:46:57.846Z,18.90
2018-05-13T20:49:26.399Z,19.37
2018-05-13T20:51:53.967Z,19.63
2018-05-13T20:54:21.432Z,22.70
2018-05-13T20:56:48.883Z,22.73
2018-05-13T20:59:17.121Z,23.30
2018-05-13T21:01:44.591Z,24.87
2018-05-13T21:04:12.835Z,24.13
2018-05-13T21:06:40.757Z,27.97
2018-05-13T21:09:08.205Z,33.47
2018-05-13T21:11:35.674Z,31.70
2018-05-13T21:14:03.146Z,31.87
2018-05-13T21:16:30.635Z,31.83
2018-05-13T21:18:58.453Z,32.80
2018-05-13T21:21:26.678Z,33.93
2018-05-13T21:23:54.139Z,33.30
2018-05-13T21:26:21.667Z,33.73
2018-05-13T21:28:49.139Z,38.93
2018-05-13T21:31:16.597Z,36.93
2018-05-13T21:33:44.838Z,40.07
2018-05-13T21:36:12.995Z,38.20
2018-05-13T21:38:40.440Z,39.17
2018-05-13T21:41:08.892Z,36.90
2018-05-13T21:43:37.094Z,37.73
2018-05-13T21:46:04.557Z,38.57
2018-05-13T21:48:32.003Z,36.47
2018-05-13T21:50:59.488Z,38.70
2018-05-13T21:53:26.966Z,37.97
2018-05-13T21:55:54.540Z,38.37
2018-05-13T21:58:22.804Z,39.17
2018-05-13T22:00:50.329Z,40.00
2018-05-13T22:03:17.771Z,37.83
2018-05-13T22:05:45.280Z,40.07
2018-05-13T22:08:12.677Z,37.90
2018-05-13T22:10:40.136Z,38.77
2018-05-13T22:13:08.316Z,39.67
2018-05-13T22:15:36.439Z,40.67
2018-05-13T22:18:03.885Z,38.33
2018-05-13T22:20:31.512Z,36.57
2018-05-13T22:22:58.981Z,39.93
2018-05-13T22:25:27.491Z,38.67
2018-05-13T22:27:55.410Z,37.90
2018-05-13T22:30:22.854Z,38.27
2018-05-13T22:32:50.365Z,38.83
2018-05-13T22:35:17.849Z,38.90
2018-05-13T22:37:45.319Z,40.43
2018-05-13T22:40:13.546Z,39.90
2018-05-13T22:42:41.379Z,41.60
2018-05-13T22:45:08.817Z,38.23
2018-05-13T22:47:36.274Z,38.43
2018-05-13T22:50:03.723Z,41.27
2018-05-13T22:52:31.957Z,41.63
2018-05-13T22:54:59.411Z,43.83
2018-05-13T22:57:26.871Z,43.47
2018-05-13T22:59:54.334Z,42.97
2018-05-13T23:02:21.807Z,46.47
2018-05-13T23:04:49.269Z,50.27
2018-05-13T23:07:16.737Z,49.10
2018-05-13T23:09:44.193Z,50.73
2018-05-13T23:12:12.436Z,45.43
2018-05-13T23:14:39.891Z,47.23
2018-05-13T23:17:07.384Z,48.40
2018-05-13T23:19:35.666Z,49.50
2018-05-13T23:22:03.143Z,52.40
2018-05-13T23:24:30.590Z,49.83
2018-05-13T23:26:58.058Z,51.57
2018-05-13T23:29:25.506Z,53.00
2018-05-13T23:31:52.961Z,47.47
2018-05-13T23:34:20.415Z,51.33
2018-05-13T23:36:48.643Z,47.97
2018-05-13T23:39:16.111Z,49.80
2018-05-13T23:41:43.574Z,43.10
2018-05-13T23:44:11.060Z,46.97
2018-05-13T23:46:39.290Z,46.87
2018-05-13T23:49:06.772Z,43.63
2018-05-13T23:51:34.260Z,44.30
2018-05-13T23:54:01.718Z,39.87
2018-05-13T23:56:29.935Z,40.83
2018-05-13T23:58:57.403Z,41.00
